sensor_id;sensor_type;location;lat;lon;timestamp;temperature;humidity
26964;DHT22;14521;48.148;-1.656;2022-08-19T00:01:11;24.90;92.20
26964;DHT22;14521;48.148;-1.656;2022-08-19T00:04:35;24.90;92.10
26964;DHT22;14521;48.148;-1.656;2022-08-19T00:07:58;24.90;92.30
26964;DHT22;14521;48.148;-1.656;2022-08-19T00:11:21;24.90;92.10
26964;DHT22;14521;48.148;-1.656;2022-08-19T00:14:46;24.90;92.10
26964;DHT22;14521;48.148;-1.656;2022-08-19T00:18:09;24.90;92.20
26964;DHT22;14521;48.148;-1.656;2022-08-19T00:21:31;24.90;92.10
26964;DHT22;14521;48.148;-1.656;2022-08-19T00:24:53;24.90;92.10
26964;DHT22;14521;48.148;-1.656;2022-08-19T00:28:16;24.90;92.00
26964;DHT22;14521;48.148;-1.656;2022-08-19T00:31:39;24.90;92.10
26964;DHT22;14521;48.148;-1.656;2022-08-19T00:35:01;24.90;91.90
26964;DHT22;14521;48.148;-1.656;2022-08-19T00:38:23;24.90;92.10
26964;DHT22;14521;48.148;-1.656;2022-08-19T00:41:59;24.90;92.20
26964;DHT22;14521;48.148;-1.656;2022-08-19T00:45:24;24.90;92.40
26964;DHT22;14521;48.148;-1.656;2022-08-19T00:48:47;24.90;92.40
26964;DHT22;14521;48.148;-1.656;2022-08-19T00:52:14;24.80;92.20
26964;DHT22;14521;48.148;-1.656;2022-08-19T00:55:37;24.80;92.30
26964;DHT22;14521;48.148;-1.656;2022-08-19T00:59:02;24.80;92.50
26964;DHT22;14521;48.148;-1.656;2022-08-19T01:02:32;24.80;92.40
26964;DHT22;14521;48.148;-1.656;2022-08-19T01:05:55;24.80;92.40
26964;DHT22;14521;48.148;-1.656;2022-08-19T01:09:18;24.80;92.50
26964;DHT22;14521;48.148;-1.656;2022-08-19T01:12:41;24.70;92.50
26964;DHT22;14521;48.148;-1.656;2022-08-19T01:16:06;24.60;92.70
26964;DHT22;14521;48.148;-1.656;2022-08-19T01:19:39;24.70;92.70
26964;DHT22;14521;48.148;-1.656;2022-08-19T01:23:05;24.70;92.70
26964;DHT22;14521;48.148;-1.656;2022-08-19T01:26:28;24.70;92.60
26964;DHT22;14521;48.148;-1.656;2022-08-19T01:29:52;24.80;92.50
26964;DHT22;14521;48.148;-1.656;2022-08-19T01:33:14;24.70;92.40
26964;DHT22;14521;48.148;-1.656;2022-08-19T01:36:40;24.80;92.50
26964;DHT22;14521;48.148;-1.656;2022-08-19T01:40:04;24.80;92.50
26964;DHT22;14521;48.148;-1.656;2022-08-19T01:43:30;24.80;92.50
26964;DHT22;14521;48.148;-1.656;2022-08-19T01:46:52;24.80;92.60
26964;DHT22;14521;48.148;-1.656;2022-08-19T01:50:15;24.80;92.60
26964;DHT22;14521;48.148;-1.656;2022-08-19T01:53:38;24.80;92.60
26964;DHT22;14521;48.148;-1.656;2022-08-19T01:57:04;24.80;92.70
26964;DHT22;14521;48.148;-1.656;2022-08-19T02:00:30;24.80;92.70
26964;DHT22;14521;48.148;-1.656;2022-08-19T02:03:53;24.80;92.80
26964;DHT22;14521;48.148;-1.656;2022-08-19T02:07:21;24.80;93.00
26964;DHT22;14521;48.148;-1.656;2022-08-19T02:10:44;24.70;92.90
26964;DHT22;14521;48.148;-1.656;2022-08-19T02:14:07;24.80;93.10
26964;DHT22;14521;48.148;-1.656;2022-08-19T02:17:30;24.80;93.20
26964;DHT22;14521;48.148;-1.656;2022-08-19T02:20:53;24.70;93.30
26964;DHT22;14521;48.148;-1.656;2022-08-19T02:24:15;24.70;93.80
26964;DHT22;14521;48.148;-1.656;2022-08-19T02:27:38;24.70;93.40
26964;DHT22;14521;48.148;-1.656;2022-08-19T02:31:00;24.70;93.50
26964;DHT22;14521;48.148;-1.656;2022-08-19T02:34:24;24.70;93.60
26964;DHT22;14521;48.148;-1.656;2022-08-19T02:37:47;24.70;93.50
26964;DHT22;14521;48.148;-1.656;2022-08-19T02:41:30;24.70;93.60
26964;DHT22;14521;48.148;-1.656;2022-08-19T02:44:55;24.70;93.70
26964;DHT22;14521;48.148;-1.656;2022-08-19T02:48:19;24.70;93.70
26964;DHT22;14521;48.148;-1.656;2022-08-19T02:51:44;24.80;93.80
26964;DHT22;14521;48.148;-1.656;2022-08-19T02:55:07;24.70;93.90
26964;DHT22;14521;48.148;-1.656;2022-08-19T02:58:30;24.70;94.00
26964;DHT22;14521;48.148;-1.656;2022-08-19T03:01:52;24.60;93.90
26964;DHT22;14521;48.148;-1.656;2022-08-19T03:05:14;24.70;94.00
26964;DHT22;14521;48.148;-1.656;2022-08-19T03:08:37;24.60;94.20
26964;DHT22;14521;48.148;-1.656;2022-08-19T03:12:00;24.60;94.40
26964;DHT22;14521;48.148;-1.656;2022-08-19T03:15:22;24.60;94.20
26964;DHT22;14521;48.148;-1.656;2022-08-19T03:18:44;24.70;94.10
26964;DHT22;14521;48.148;-1.656;2022-08-19T03:22:07;24.70;94.00
26964;DHT22;14521;48.148;-1.656;2022-08-19T03:25:29;24.70;94.20
26964;DHT22;14521;48.148;-1.656;2022-08-19T03:28:52;24.70;94.30
26964;DHT22;14521;48.148;-1.656;2022-08-19T03:32:19;24.70;94.30
26964;DHT22;14521;48.148;-1.656;2022-08-19T03:36:15;24.70;94.30
26964;DHT22;14521;48.148;-1.656;2022-08-19T03:39:39;24.70;94.30
26964;DHT22;14521;48.148;-1.656;2022-08-19T03:43:02;24.80;94.30
26964;DHT22;14521;48.148;-1.656;2022-08-19T03:46:29;24.70;94.30
26964;DHT22;14521;48.148;-1.656;2022-08-19T03:49:51;24.70;94.50
26964;DHT22;14521;48.148;-1.656;2022-08-19T03:53:14;24.70;94.70
26964;DHT22;14521;48.148;-1.656;2022-08-19T03:56:39;24.70;94.70
26964;DHT22;14521;48.148;-1.656;2022-08-19T04:00:03;24.60;94.80
26964;DHT22;14521;48.148;-1.656;2022-08-19T04:03:35;24.70;94.70
26964;DHT22;14521;48.148;-1.656;2022-08-19T04:06:58;24.70;94.60
26964;DHT22;14521;48.148;-1.656;2022-08-19T04:10:20;24.70;94.90
26964;DHT22;14521;48.148;-1.656;2022-08-19T04:13:42;24.70;95.20
26964;DHT22;14521;48.148;-1.656;2022-08-19T04:17:07;24.60;95.10
26964;DHT22;14521;48.148;-1.656;2022-08-19T04:20:29;24.60;95.10
26964;DHT22;14521;48.148;-1.656;2022-08-19T04:23:52;24.60;95.30
26964;DHT22;14521;48.148;-1.656;2022-08-19T04:27:16;24.60;95.80
26964;DHT22;14521;48.148;-1.656;2022-08-19T04:30:45;24.50;95.80
26964;DHT22;14521;48.148;-1.656;2022-08-19T04:34:12;24.40;96.10
26964;DHT22;14521;48.148;-1.656;2022-08-19T04:37:34;24.40;96.40
26964;DHT22;14521;48.148;-1.656;2022-08-19T04:40:57;24.40;96.40
26964;DHT22;14521;48.148;-1.656;2022-08-19T04:44:37;24.50;96.20
26964;DHT22;14521;48.148;-1.656;2022-08-19T04:48:07;24.50;96.10
26964;DHT22;14521;48.148;-1.656;2022-08-19T04:51:49;24.50;96.20
26964;DHT22;14521;48.148;-1.656;2022-08-19T04:55:12;24.50;96.30
26964;DHT22;14521;48.148;-1.656;2022-08-19T04:58:35;24.50;96.30
26964;DHT22;14521;48.148;-1.656;2022-08-19T05:01:58;24.50;96.10
26964;DHT22;14521;48.148;-1.656;2022-08-19T05:05:20;24.50;96.10
26964;DHT22;14521;48.148;-1.656;2022-08-19T05:08:44;24.50;96.20
26964;DHT22;14521;48.148;-1.656;2022-08-19T05:12:06;24.10;97.80
26964;DHT22;14521;48.148;-1.656;2022-08-19T05:15:28;23.70;99.10
26964;DHT22;14521;48.148;-1.656;2022-08-19T05:18:50;23.60;99.70
26964;DHT22;14521;48.148;-1.656;2022-08-19T05:22:31;23.50;99.90
26964;DHT22;14521;48.148;-1.656;2022-08-19T05:25:54;23.40;99.90
26964;DHT22;14521;48.148;-1.656;2022-08-19T05:29:19;23.40;99.90
26964;DHT22;14521;48.148;-1.656;2022-08-19T05:32:43;23.50;99.90
26964;DHT22;14521;48.148;-1.656;2022-08-19T05:36:06;23.30;99.90
26964;DHT22;14521;48.148;-1.656;2022-08-19T05:39:32;23.60;99.90
26964;DHT22;14521;48.148;-1.656;2022-08-19T05:42:54;23.90;99.90
26964;DHT22;14521;48.148;-1.656;2022-08-19T05:46:18;24.10;99.50
26964;DHT22;14521;48.148;-1.656;2022-08-19T05:49:49;24.20;99.30
26964;DHT22;14521;48.148;-1.656;2022-08-19T05:53:14;24.30;99.30
26964;DHT22;14521;48.148;-1.656;2022-08-19T05:56:38;24.30;99.10
26964;DHT22;14521;48.148;-1.656;2022-08-19T06:00:00;24.40;98.80
26964;DHT22;14521;48.148;-1.656;2022-08-19T06:03:32;24.40;98.70
26964;DHT22;14521;48.148;-1.656;2022-08-19T06:06:55;24.40;98.70
26964;DHT22;14521;48.148;-1.656;2022-08-19T06:10:18;24.40;99.10
26964;DHT22;14521;48.148;-1.656;2022-08-19T06:13:40;24.40;98.80
26964;DHT22;14521;48.148;-1.656;2022-08-19T06:17:03;24.40;98.80
26964;DHT22;14521;48.148;-1.656;2022-08-19T06:20:28;24.30;99.00
26964;DHT22;14521;48.148;-1.656;2022-08-19T06:24:13;24.40;98.70
26964;DHT22;14521;48.148;-1.656;2022-08-19T06:27:36;24.30;99.00
26964;DHT22;14521;48.148;-1.656;2022-08-19T06:31:16;24.20;99.40
26964;DHT22;14521;48.148;-1.656;2022-08-19T06:34:39;24.30;99.50
26964;DHT22;14521;48.148;-1.656;2022-08-19T06:38:01;24.10;99.90
26964;DHT22;14521;48.148;-1.656;2022-08-19T06:41:26;23.90;99.90
26964;DHT22;14521;48.148;-1.656;2022-08-19T06:44:48;23.70;99.90
26964;DHT22;14521;48.148;-1.656;2022-08-19T06:48:14;23.60;99.90
26964;DHT22;14521;48.148;-1.656;2022-08-19T06:51:43;23.50;99.90
26964;DHT22;14521;48.148;-1.656;2022-08-19T06:55:06;23.40;99.90
26964;DHT22;14521;48.148;-1.656;2022-08-19T06:58:29;23.40;99.90
26964;DHT22;14521;48.148;-1.656;2022-08-19T07:01:56;23.40;99.90
26964;DHT22;14521;48.148;-1.656;2022-08-19T07:05:19;23.40;99.90
26964;DHT22;14521;48.148;-1.656;2022-08-19T07:08:41;23.40;99.90
26964;DHT22;14521;48.148;-1.656;2022-08-19T07:12:07;23.40;99.90
26964;DHT22;14521;48.148;-1.656;2022-08-19T07:15:29;23.40;99.90
26964;DHT22;14521;48.148;-1.656;2022-08-19T07:18:52;23.40;99.90
26964;DHT22;14521;48.148;-1.656;2022-08-19T07:22:15;23.40;99.90
26964;DHT22;14521;48.148;-1.656;2022-08-19T07:25:38;23.40;99.90
26964;DHT22;14521;48.148;-1.656;2022-08-19T07:29:02;23.30;99.90
26964;DHT22;14521;48.148;-1.656;2022-08-19T07:32:24;23.30;99.90
26964;DHT22;14521;48.148;-1.656;2022-08-19T07:35:49;23.30;99.90
26964;DHT22;14521;48.148;-1.656;2022-08-19T07:39:15;23.40;99.90
26964;DHT22;14521;48.148;-1.656;2022-08-19T07:42:38;23.40;99.90
26964;DHT22;14521;48.148;-1.656;2022-08-19T07:46:00;23.50;99.90
26964;DHT22;14521;48.148;-1.656;2022-08-19T07:49:24;23.50;99.90
26964;DHT22;14521;48.148;-1.656;2022-08-19T07:52:47;23.60;99.90
26964;DHT22;14521;48.148;-1.656;2022-08-19T07:56:14;23.50;99.90
26964;DHT22;14521;48.148;-1.656;2022-08-19T07:59:36;23.60;99.90
26964;DHT22;14521;48.148;-1.656;2022-08-19T08:02:59;23.60;99.90
26964;DHT22;14521;48.148;-1.656;2022-08-19T08:06:22;23.60;99.90
26964;DHT22;14521;48.148;-1.656;2022-08-19T08:10:05;23.70;99.90
26964;DHT22;14521;48.148;-1.656;2022-08-19T08:13:42;23.60;99.90
26964;DHT22;14521;48.148;-1.656;2022-08-19T08:17:07;23.70;99.90
26964;DHT22;14521;48.148;-1.656;2022-08-19T08:20:32;23.60;99.90
26964;DHT22;14521;48.148;-1.656;2022-08-19T08:23:54;23.50;99.90
26964;DHT22;14521;48.148;-1.656;2022-08-19T08:27:17;23.60;99.90
26964;DHT22;14521;48.148;-1.656;2022-08-19T08:30:48;23.50;99.90
26964;DHT22;14521;48.148;-1.656;2022-08-19T08:34:12;23.50;99.90
26964;DHT22;14521;48.148;-1.656;2022-08-19T08:37:36;23.60;99.90
26964;DHT22;14521;48.148;-1.656;2022-08-19T08:41:03;23.70;99.90
26964;DHT22;14521;48.148;-1.656;2022-08-19T08:48:02;24.00;99.90
26964;DHT22;14521;48.148;-1.656;2022-08-19T08:51:48;24.10;99.90
26964;DHT22;14521;48.148;-1.656;2022-08-19T08:55:24;24.10;99.90
26964;DHT22;14521;48.148;-1.656;2022-08-19T08:58:57;24.20;99.90
26964;DHT22;14521;48.148;-1.656;2022-08-19T09:02:20;24.30;99.90
26964;DHT22;14521;48.148;-1.656;2022-08-19T09:09:34;24.50;99.90
26964;DHT22;14521;48.148;-1.656;2022-08-19T09:16:59;24.50;99.90
26964;DHT22;14521;48.148;-1.656;2022-08-19T09:20:23;24.40;99.90
26964;DHT22;14521;48.148;-1.656;2022-08-19T09:23:47;24.40;99.90
26964;DHT22;14521;48.148;-1.656;2022-08-19T09:27:12;24.30;99.90
26964;DHT22;14521;48.148;-1.656;2022-08-19T09:30:40;24.20;99.90
26964;DHT22;14521;48.148;-1.656;2022-08-19T09:34:03;24.20;99.90
26964;DHT22;14521;48.148;-1.656;2022-08-19T09:37:27;24.10;99.90
26964;DHT22;14521;48.148;-1.656;2022-08-19T09:40:50;24.10;99.90
26964;DHT22;14521;48.148;-1.656;2022-08-19T09:44:13;24.20;99.90
26964;DHT22;14521;48.148;-1.656;2022-08-19T09:47:35;24.10;99.90
26964;DHT22;14521;48.148;-1.656;2022-08-19T09:51:22;24.10;99.90
26964;DHT22;14521;48.148;-1.656;2022-08-19T09:54:45;24.10;99.90
26964;DHT22;14521;48.148;-1.656;2022-08-19T09:58:13;24.10;99.90
26964;DHT22;14521;48.148;-1.656;2022-08-19T10:01:35;24.10;99.90
26964;DHT22;14521;48.148;-1.656;2022-08-19T10:04:58;24.20;99.90
26964;DHT22;14521;48.148;-1.656;2022-08-19T10:08:47;24.20;99.90
26964;DHT22;14521;48.148;-1.656;2022-08-19T10:12:11;24.20;99.90
26964;DHT22;14521;48.148;-1.656;2022-08-19T10:15:38;24.20;99.90
26964;DHT22;14521;48.148;-1.656;2022-08-19T10:19:10;24.30;99.90
26964;DHT22;14521;48.148;-1.656;2022-08-19T10:22:32;24.40;99.90
26964;DHT22;14521;48.148;-1.656;2022-08-19T10:25:59;24.40;99.90
26964;DHT22;14521;48.148;-1.656;2022-08-19T10:29:22;24.40;99.90
26964;DHT22;14521;48.148;-1.656;2022-08-19T10:32:54;24.50;99.90
26964;DHT22;14521;48.148;-1.656;2022-08-19T10:36:18;24.40;99.90
26964;DHT22;14521;48.148;-1.656;2022-08-19T10:39:41;24.40;99.90
26964;DHT22;14521;48.148;-1.656;2022-08-19T10:43:04;24.50;99.90
26964;DHT22;14521;48.148;-1.656;2022-08-19T10:46:28;24.40;99.90
26964;DHT22;14521;48.148;-1.656;2022-08-19T10:49:54;24.50;99.90
26964;DHT22;14521;48.148;-1.656;2022-08-19T10:53:35;24.50;99.90
26964;DHT22;14521;48.148;-1.656;2022-08-19T10:56:57;24.50;99.90
26964;DHT22;14521;48.148;-1.656;2022-08-19T11:00:21;24.40;99.90
26964;DHT22;14521;48.148;-1.656;2022-08-19T11:03:44;24.40;99.90
26964;DHT22;14521;48.148;-1.656;2022-08-19T11:07:08;24.50;99.90
26964;DHT22;14521;48.148;-1.656;2022-08-19T11:10:30;24.40;99.90
26964;DHT22;14521;48.148;-1.656;2022-08-19T11:13:52;24.50;99.90
26964;DHT22;14521;48.148;-1.656;2022-08-19T11:17:14;24.50;99.90
26964;DHT22;14521;48.148;-1.656;2022-08-19T11:20:37;24.50;99.90
26964;DHT22;14521;48.148;-1.656;2022-08-19T11:24:02;24.40;99.90
26964;DHT22;14521;48.148;-1.656;2022-08-19T11:27:25;24.30;99.90
26964;DHT22;14521;48.148;-1.656;2022-08-19T11:30:47;24.40;99.90
26964;DHT22;14521;48.148;-1.656;2022-08-19T11:34:12;24.40;99.90
26964;DHT22;14521;48.148;-1.656;2022-08-19T11:37:35;24.40;99.90
26964;DHT22;14521;48.148;-1.656;2022-08-19T11:41:04;24.40;99.90
26964;DHT22;14521;48.148;-1.656;2022-08-19T11:44:27;24.40;99.90
26964;DHT22;14521;48.148;-1.656;2022-08-19T11:47:52;24.40;99.90
26964;DHT22;14521;48.148;-1.656;2022-08-19T11:51:18;24.40;99.90
26964;DHT22;14521;48.148;-1.656;2022-08-19T11:54:41;24.40;99.90
26964;DHT22;14521;48.148;-1.656;2022-08-19T11:58:03;24.40;99.90
26964;DHT22;14521;48.148;-1.656;2022-08-19T12:01:39;24.30;99.90
26964;DHT22;14521;48.148;-1.656;2022-08-19T12:05:04;24.30;99.90
26964;DHT22;14521;48.148;-1.656;2022-08-19T12:08:33;24.40;99.90
26964;DHT22;14521;48.148;-1.656;2022-08-19T12:11:55;24.40;99.90
26964;DHT22;14521;48.148;-1.656;2022-08-19T12:15:18;24.40;99.90
26964;DHT22;14521;48.148;-1.656;2022-08-19T12:18:41;24.40;99.90
26964;DHT22;14521;48.148;-1.656;2022-08-19T12:22:05;24.40;99.90
26964;DHT22;14521;48.148;-1.656;2022-08-19T12:25:29;24.40;99.90
26964;DHT22;14521;48.148;-1.656;2022-08-19T12:28:53;24.40;99.90
26964;DHT22;14521;48.148;-1.656;2022-08-19T12:32:15;24.40;99.90
26964;DHT22;14521;48.148;-1.656;2022-08-19T12:35:42;24.30;99.90
26964;DHT22;14521;48.148;-1.656;2022-08-19T12:39:06;24.40;99.90
26964;DHT22;14521;48.148;-1.656;2022-08-19T12:42:32;24.50;99.90
26964;DHT22;14521;48.148;-1.656;2022-08-19T12:45:54;24.50;99.90
26964;DHT22;14521;48.148;-1.656;2022-08-19T12:49:17;24.60;99.90
26964;DHT22;14521;48.148;-1.656;2022-08-19T12:53:00;24.60;99.90
26964;DHT22;14521;48.148;-1.656;2022-08-19T12:56:22;24.60;99.90
26964;DHT22;14521;48.148;-1.656;2022-08-19T12:59:45;24.60;99.90
26964;DHT22;14521;48.148;-1.656;2022-08-19T13:03:07;24.60;99.90
26964;DHT22;14521;48.148;-1.656;2022-08-19T13:06:29;24.60;99.90
26964;DHT22;14521;48.148;-1.656;2022-08-19T13:09:52;24.60;99.90
26964;DHT22;14521;48.148;-1.656;2022-08-19T13:13:15;24.60;99.90
26964;DHT22;14521;48.148;-1.656;2022-08-19T13:16:37;24.60;99.90
26964;DHT22;14521;48.148;-1.656;2022-08-19T13:19:59;24.60;99.90
26964;DHT22;14521;48.148;-1.656;2022-08-19T13:23:22;24.60;99.90
26964;DHT22;14521;48.148;-1.656;2022-08-19T13:26:44;24.60;99.90
26964;DHT22;14521;48.148;-1.656;2022-08-19T13:30:09;24.50;99.90
26964;DHT22;14521;48.148;-1.656;2022-08-19T13:33:52;24.50;99.90
26964;DHT22;14521;48.148;-1.656;2022-08-19T13:37:14;24.50;99.90
26964;DHT22;14521;48.148;-1.656;2022-08-19T13:40:38;24.60;99.90
26964;DHT22;14521;48.148;-1.656;2022-08-19T13:44:03;24.60;99.90
26964;DHT22;14521;48.148;-1.656;2022-08-19T13:47:25;24.60;99.90
26964;DHT22;14521;48.148;-1.656;2022-08-19T13:50:47;24.50;99.90
26964;DHT22;14521;48.148;-1.656;2022-08-19T13:54:11;24.40;99.90
26964;DHT22;14521;48.148;-1.656;2022-08-19T13:57:34;24.10;99.90
26964;DHT22;14521;48.148;-1.656;2022-08-19T14:00:57;23.80;99.90
26964;DHT22;14521;48.148;-1.656;2022-08-19T14:04:21;23.70;99.90
26964;DHT22;14521;48.148;-1.656;2022-08-19T14:07:43;23.60;99.90
26964;DHT22;14521;48.148;-1.656;2022-08-19T14:11:05;23.50;99.90
26964;DHT22;14521;48.148;-1.656;2022-08-19T14:14:27;23.40;99.90
26964;DHT22;14521;48.148;-1.656;2022-08-19T14:17:51;23.40;99.90
26964;DHT22;14521;48.148;-1.656;2022-08-19T14:21:16;23.40;99.90
26964;DHT22;14521;48.148;-1.656;2022-08-19T14:24:39;23.30;99.90
26964;DHT22;14521;48.148;-1.656;2022-08-19T14:28:08;23.20;99.90
26964;DHT22;14521;48.148;-1.656;2022-08-19T14:31:31;23.30;99.90
26964;DHT22;14521;48.148;-1.656;2022-08-19T14:34:53;23.40;99.90
26964;DHT22;14521;48.148;-1.656;2022-08-19T14:38:20;23.30;99.90
26964;DHT22;14521;48.148;-1.656;2022-08-19T14:41:52;23.30;99.90
26964;DHT22;14521;48.148;-1.656;2022-08-19T14:45:14;23.20;99.90
26964;DHT22;14521;48.148;-1.656;2022-08-19T14:48:37;23.20;99.90
26964;DHT22;14521;48.148;-1.656;2022-08-19T14:52:03;23.10;99.90
26964;DHT22;14521;48.148;-1.656;2022-08-19T14:55:26;23.10;99.90
26964;DHT22;14521;48.148;-1.656;2022-08-19T14:58:48;23.10;99.90
26964;DHT22;14521;48.148;-1.656;2022-08-19T15:02:13;23.10;99.90
26964;DHT22;14521;48.148;-1.656;2022-08-19T15:05:56;23.10;99.90
26964;DHT22;14521;48.148;-1.656;2022-08-19T15:09:20;23.00;99.90
26964;DHT22;14521;48.148;-1.656;2022-08-19T15:12:42;23.00;99.90
26964;DHT22;14521;48.148;-1.656;2022-08-19T15:16:04;23.20;99.90
26964;DHT22;14521;48.148;-1.656;2022-08-19T15:19:39;23.30;99.90
26964;DHT22;14521;48.148;-1.656;2022-08-19T15:23:01;23.30;99.90
26964;DHT22;14521;48.148;-1.656;2022-08-19T15:26:24;23.20;99.90
26964;DHT22;14521;48.148;-1.656;2022-08-19T15:29:49;23.10;99.90
26964;DHT22;14521;48.148;-1.656;2022-08-19T15:33:17;23.10;99.90
26964;DHT22;14521;48.148;-1.656;2022-08-19T15:36:42;23.00;99.90
26964;DHT22;14521;48.148;-1.656;2022-08-19T15:40:05;23.00;99.90
26964;DHT22;14521;48.148;-1.656;2022-08-19T15:43:30;22.90;99.90
26964;DHT22;14521;48.148;-1.656;2022-08-19T15:46:53;23.20;99.90
26964;DHT22;14521;48.148;-1.656;2022-08-19T15:50:18;23.30;99.90
26964;DHT22;14521;48.148;-1.656;2022-08-19T15:53:42;23.20;99.90
26964;DHT22;14521;48.148;-1.656;2022-08-19T15:57:05;23.20;99.90
26964;DHT22;14521;48.148;-1.656;2022-08-19T16:00:45;23.00;99.90
26964;DHT22;14521;48.148;-1.656;2022-08-19T16:04:33;22.90;99.90
26964;DHT22;14521;48.148;-1.656;2022-08-19T16:08:14;23.00;99.90
26964;DHT22;14521;48.148;-1.656;2022-08-19T16:11:36;23.10;99.90
26964;DHT22;14521;48.148;-1.656;2022-08-19T16:15:00;23.00;99.90
26964;DHT22;14521;48.148;-1.656;2022-08-19T16:18:23;22.90;99.90
26964;DHT22;14521;48.148;-1.656;2022-08-19T16:21:49;22.70;99.90
26964;DHT22;14521;48.148;-1.656;2022-08-19T16:25:11;22.50;99.90
26964;DHT22;14521;48.148;-1.656;2022-08-19T16:28:34;22.40;99.90
26964;DHT22;14521;48.148;-1.656;2022-08-19T16:31:57;22.40;99.90
26964;DHT22;14521;48.148;-1.656;2022-08-19T16:35:19;22.40;99.90
26964;DHT22;14521;48.148;-1.656;2022-08-19T16:38:43;22.40;99.90
26964;DHT22;14521;48.148;-1.656;2022-08-19T16:42:10;22.30;99.90
26964;DHT22;14521;48.148;-1.656;2022-08-19T16:45:32;22.20;99.90
26964;DHT22;14521;48.148;-1.656;2022-08-19T16:48:55;22.10;99.90
26964;DHT22;14521;48.148;-1.656;2022-08-19T16:52:18;22.30;99.90
26964;DHT22;14521;48.148;-1.656;2022-08-19T16:55:40;22.40;99.90
26964;DHT22;14521;48.148;-1.656;2022-08-19T16:59:03;22.30;99.90
26964;DHT22;14521;48.148;-1.656;2022-08-19T17:02:25;22.70;99.90
26964;DHT22;14521;48.148;-1.656;2022-08-19T17:05:53;22.90;99.90
26964;DHT22;14521;48.148;-1.656;2022-08-19T17:09:16;23.00;99.90
26964;DHT22;14521;48.148;-1.656;2022-08-19T17:12:47;23.10;99.90
26964;DHT22;14521;48.148;-1.656;2022-08-19T17:16:09;23.20;99.90
26964;DHT22;14521;48.148;-1.656;2022-08-19T17:19:31;23.20;99.90
26964;DHT22;14521;48.148;-1.656;2022-08-19T17:22:54;23.30;99.90
26964;DHT22;14521;48.148;-1.656;2022-08-19T17:26:17;23.20;99.90
26964;DHT22;14521;48.148;-1.656;2022-08-19T17:29:40;23.20;99.90
26964;DHT22;14521;48.148;-1.656;2022-08-19T17:33:08;23.20;99.90
26964;DHT22;14521;48.148;-1.656;2022-08-19T17:36:31;23.20;99.90
26964;DHT22;14521;48.148;-1.656;2022-08-19T17:39:54;23.20;99.90
26964;DHT22;14521;48.148;-1.656;2022-08-19T17:43:18;23.30;99.90
26964;DHT22;14521;48.148;-1.656;2022-08-19T17:46:55;23.40;99.90
26964;DHT22;14521;48.148;-1.656;2022-08-19T17:50:18;23.40;99.90
26964;DHT22;14521;48.148;-1.656;2022-08-19T17:53:41;23.40;99.90
26964;DHT22;14521;48.148;-1.656;2022-08-19T17:57:03;23.50;99.90
26964;DHT22;14521;48.148;-1.656;2022-08-19T18:00:26;23.60;99.90
26964;DHT22;14521;48.148;-1.656;2022-08-19T18:03:49;23.50;99.90
26964;DHT22;14521;48.148;-1.656;2022-08-19T18:07:11;23.40;99.50
26964;DHT22;14521;48.148;-1.656;2022-08-19T18:10:34;23.10;99.80
26964;DHT22;14521;48.148;-1.656;2022-08-19T18:13:56;22.80;99.70
26964;DHT22;14521;48.148;-1.656;2022-08-19T18:17:18;22.80;99.50
26964;DHT22;14521;48.148;-1.656;2022-08-19T18:24:07;22.50;99.70
26964;DHT22;14521;48.148;-1.656;2022-08-19T18:27:29;22.50;98.00
26964;DHT22;14521;48.148;-1.656;2022-08-19T18:30:52;22.50;98.40
26964;DHT22;14521;48.148;-1.656;2022-08-19T18:34:14;22.50;97.80
26964;DHT22;14521;48.148;-1.656;2022-08-19T18:37:38;22.40;96.90
26964;DHT22;14521;48.148;-1.656;2022-08-19T18:41:00;22.40;96.80
26964;DHT22;14521;48.148;-1.656;2022-08-19T18:44:41;22.30;98.10
26964;DHT22;14521;48.148;-1.656;2022-08-19T18:48:22;22.20;99.20
26964;DHT22;14521;48.148;-1.656;2022-08-19T18:52:03;22.10;99.60
26964;DHT22;14521;48.148;-1.656;2022-08-19T18:55:25;22.10;99.90
26964;DHT22;14521;48.148;-1.656;2022-08-19T18:58:49;22.00;99.90
26964;DHT22;14521;48.148;-1.656;2022-08-19T19:02:11;21.90;99.90
26964;DHT22;14521;48.148;-1.656;2022-08-19T19:05:36;21.80;99.90
26964;DHT22;14521;48.148;-1.656;2022-08-19T19:09:00;21.70;99.90
26964;DHT22;14521;48.148;-1.656;2022-08-19T19:12:23;21.70;99.90
26964;DHT22;14521;48.148;-1.656;2022-08-19T19:15:50;21.60;99.90
26964;DHT22;14521;48.148;-1.656;2022-08-19T19:19:13;21.50;99.90
26964;DHT22;14521;48.148;-1.656;2022-08-19T19:22:40;21.50;99.90
26964;DHT22;14521;48.148;-1.656;2022-08-19T19:26:02;21.60;99.90
26964;DHT22;14521;48.148;-1.656;2022-08-19T19:29:25;22.30;99.90
26964;DHT22;14521;48.148;-1.656;2022-08-19T19:32:48;22.70;99.90
26964;DHT22;14521;48.148;-1.656;2022-08-19T19:39:34;23.20;99.90
26964;DHT22;14521;48.148;-1.656;2022-08-19T19:43:08;23.40;99.90
26964;DHT22;14521;48.148;-1.656;2022-08-19T19:46:31;23.40;99.30
26964;DHT22;14521;48.148;-1.656;2022-08-19T19:49:53;23.40;99.10
26964;DHT22;14521;48.148;-1.656;2022-08-19T19:53:36;23.40;98.80
26964;DHT22;14521;48.148;-1.656;2022-08-19T19:56:58;23.40;98.60
26964;DHT22;14521;48.148;-1.656;2022-08-19T20:00:21;23.40;98.70
26964;DHT22;14521;48.148;-1.656;2022-08-19T20:03:44;23.40;98.40
26964;DHT22;14521;48.148;-1.656;2022-08-19T20:07:06;23.40;98.10
26964;DHT22;14521;48.148;-1.656;2022-08-19T20:10:28;23.40;98.00
26964;DHT22;14521;48.148;-1.656;2022-08-19T20:13:53;23.40;97.90
26964;DHT22;14521;48.148;-1.656;2022-08-19T20:17:15;23.40;97.70
26964;DHT22;14521;48.148;-1.656;2022-08-19T20:20:37;23.50;97.70
26964;DHT22;14521;48.148;-1.656;2022-08-19T20:24:01;23.50;97.60
26964;DHT22;14521;48.148;-1.656;2022-08-19T20:27:31;23.50;97.70
26964;DHT22;14521;48.148;-1.656;2022-08-19T20:31:01;23.50;97.50
26964;DHT22;14521;48.148;-1.656;2022-08-19T20:34:26;23.50;97.40
26964;DHT22;14521;48.148;-1.656;2022-08-19T20:37:49;23.50;97.20
26964;DHT22;14521;48.148;-1.656;2022-08-19T20:41:19;23.50;96.90
26964;DHT22;14521;48.148;-1.656;2022-08-19T20:44:42;23.50;96.70
26964;DHT22;14521;48.148;-1.656;2022-08-19T20:48:06;23.50;96.70
26964;DHT22;14521;48.148;-1.656;2022-08-19T20:51:29;23.50;96.70
26964;DHT22;14521;48.148;-1.656;2022-08-19T20:54:52;23.50;96.40
26964;DHT22;14521;48.148;-1.656;2022-08-19T20:58:16;23.50;96.20
26964;DHT22;14521;48.148;-1.656;2022-08-19T21:01:39;23.50;96.10
26964;DHT22;14521;48.148;-1.656;2022-08-19T21:05:01;23.50;96.20
26964;DHT22;14521;48.148;-1.656;2022-08-19T21:08:25;23.50;95.90
26964;DHT22;14521;48.148;-1.656;2022-08-19T21:11:48;23.50;95.80
26964;DHT22;14521;48.148;-1.656;2022-08-19T21:15:11;23.50;95.70
26964;DHT22;14521;48.148;-1.656;2022-08-19T21:18:33;23.50;95.30
26964;DHT22;14521;48.148;-1.656;2022-08-19T21:21:56;23.50;94.90
26964;DHT22;14521;48.148;-1.656;2022-08-19T21:25:19;23.50;95.10
26964;DHT22;14521;48.148;-1.656;2022-08-19T21:28:42;23.50;94.00
26964;DHT22;14521;48.148;-1.656;2022-08-19T21:32:04;23.40;94.80